sensor_id;sensor_type;location;lat;lon;timestamp;pressure;altitude;pressure_sealevel;temperature;humidity
76311;BME280;65120;59.304;18.294;2023-01-01T00:01:27;99851.66;;;3.57;70.61
76311;BME280;65120;59.304;18.294;2023-01-01T00:03:57;99851.63;;;3.55;70.54
76311;BME280;65120;59.304;18.294;2023-01-01T00:06:24;99854.25;;;3.54;70.29
76311;BME280;65120;59.304;18.294;2023-01-01T00:08:52;99837.03;;;3.50;70.64
76311;BME280;65120;59.304;18.294;2023-01-01T00:11:39;99837.03;;;3.50;70.32
76311;BME280;65120;59.304;18.294;2023-01-01T00:14:06;99817.31;;;3.40;70.18
76311;BME280;65120;59.304;18.294;2023-01-01T00:16:33;99838.78;;;3.48;70.59
76311;BME280;65120;59.304;18.294;2023-01-01T00:19:01;99828.44;;;3.46;70.28
76311;BME280;65120;59.304;18.294;2023-01-01T00:21:29;99825.03;;;3.43;70.58
76311;BME280;65120;59.304;18.294;2023-01-01T00:23:55;99828.47;;;3.43;70.75
76311;BME280;65120;59.304;18.294;2023-01-01T00:26:22;99827.59;;;3.41;70.43
76311;BME280;65120;59.304;18.294;2023-01-01T00:28:49;99831.06;;;3.40;70.78
76311;BME280;65120;59.304;18.294;2023-01-01T00:31:19;99832.78;;;3.38;70.55
76311;BME280;65120;59.304;18.294;2023-01-01T00:33:49;99835.41;;;3.36;70.58
76311;BME280;65120;59.304;18.294;2023-01-01T00:36:20;99839.69;;;3.33;71.02
76311;BME280;65120;59.304;18.294;2023-01-01T00:38:47;99840.59;;;3.27;70.40
76311;BME280;65120;59.304;18.294;2023-01-01T00:41:16;99851.78;;;3.26;70.97
76311;BME280;65120;59.304;18.294;2023-01-01T00:43:43;99851.78;;;3.25;71.07
76311;BME280;65120;59.304;18.294;2023-01-01T00:46:10;99850.91;;;3.21;71.15
76311;BME280;65120;59.304;18.294;2023-01-01T00:48:37;99841.50;;;3.17;71.24
76311;BME280;65120;59.304;18.294;2023-01-01T00:51:05;99854.38;;;3.19;71.33
76311;BME280;65120;59.304;18.294;2023-01-01T00:53:33;99859.56;;;3.17;71.17
76311;BME280;65120;59.304;18.294;2023-01-01T00:56:01;99855.25;;;3.14;71.01
76311;BME280;65120;59.304;18.294;2023-01-01T00:58:28;99859.56;;;3.12;71.06
76311;BME280;65120;59.304;18.294;2023-01-01T01:00:55;99862.16;;;3.09;71.36
76311;BME280;65120;59.304;18.294;2023-01-01T01:03:22;99869.03;;;3.09;71.10
76311;BME280;65120;59.304;18.294;2023-01-01T01:05:56;99861.31;;;3.06;71.38
76311;BME280;65120;59.304;18.294;2023-01-01T01:08:24;99866.47;;;3.06;71.35
76311;BME280;65120;59.304;18.294;2023-01-01T01:10:52;99869.03;;;3.01;71.26
76311;BME280;65120;59.304;18.294;2023-01-01T01:13:20;99875.06;;;3.03;71.53
76311;BME280;65120;59.304;18.294;2023-01-01T01:15:47;99877.66;;;3.03;71.19
76311;BME280;65120;59.304;18.294;2023-01-01T01:18:14;99866.47;;;3.01;71.67
76311;BME280;65120;59.304;18.294;2023-01-01T01:20:49;99875.09;;;3.02;71.48
76311;BME280;65120;59.304;18.294;2023-01-01T01:23:16;99878.53;;;3.02;71.70
76311;BME280;65120;59.304;18.294;2023-01-01T01:25:44;99883.66;;;3.01;70.92
76311;BME280;65120;59.304;18.294;2023-01-01T01:28:12;99892.28;;;2.97;71.50
76311;BME280;65120;59.304;18.294;2023-01-01T01:30:39;99905.16;;;2.98;70.98
76311;BME280;65120;59.304;18.294;2023-01-01T01:33:06;99901.75;;;2.99;71.35
76311;BME280;65120;59.304;18.294;2023-01-01T01:35:33;99919.81;;;2.99;71.64
76311;BME280;65120;59.304;18.294;2023-01-01T01:38:00;99918.91;;;2.99;71.64
76311;BME280;65120;59.304;18.294;2023-01-01T01:40:27;99930.13;;;2.98;71.24
76311;BME280;65120;59.304;18.294;2023-01-01T01:42:54;99936.97;;;2.96;71.18
76311;BME280;65120;59.304;18.294;2023-01-01T01:45:22;99930.13;;;2.95;71.65
76311;BME280;65120;59.304;18.294;2023-01-01T01:47:51;99937.84;;;2.95;71.58
76311;BME280;65120;59.304;18.294;2023-01-01T01:50:23;99923.25;;;2.90;71.68
76311;BME280;65120;59.304;18.294;2023-01-01T01:53:00;99927.53;;;2.93;71.47
76311;BME280;65120;59.304;18.294;2023-01-01T01:55:30;99936.13;;;2.92;71.33
76311;BME280;65120;59.304;18.294;2023-01-01T01:57:58;99934.44;;;2.91;71.18
76311;BME280;65120;59.304;18.294;2023-01-01T02:00:26;99937.84;;;2.90;71.75
76311;BME280;65120;59.304;18.294;2023-01-01T02:02:57;99930.13;;;2.85;71.22
76311;BME280;65120;59.304;18.294;2023-01-01T02:05:25;99946.44;;;2.87;71.96
76311;BME280;65120;59.304;18.294;2023-01-01T02:07:53;99936.16;;;2.86;71.39
76311;BME280;65120;59.304;18.294;2023-01-01T02:10:21;99946.44;;;2.84;71.86
76311;BME280;65120;59.304;18.294;2023-01-01T02:12:48;99951.59;;;2.84;71.80
76311;BME280;65120;59.304;18.294;2023-01-01T02:15:15;99945.63;;;2.82;71.54
76311;BME280;65120;59.304;18.294;2023-01-01T02:17:51;99949.03;;;2.81;71.84
76311;BME280;65120;59.304;18.294;2023-01-01T02:20:32;99941.28;;;2.78;71.77
76311;BME280;65120;59.304;18.294;2023-01-01T02:26:21;99960.22;;;2.76;71.98
76311;BME280;65120;59.304;18.294;2023-01-01T02:29:08;99966.22;;;2.73;72.10
76311;BME280;65120;59.304;18.294;2023-01-01T02:31:43;99955.91;;;2.70;71.37
76311;BME280;65120;59.304;18.294;2023-01-01T02:34:14;99967.09;;;2.70;71.90
76311;BME280;65120;59.304;18.294;2023-01-01T02:36:47;99981.69;;;2.70;71.53
76311;BME280;65120;59.304;18.294;2023-01-01T02:39:18;99976.53;;;2.67;72.16
76311;BME280;65120;59.304;18.294;2023-01-01T02:41:51;99976.53;;;2.67;71.63
76311;BME280;65120;59.304;18.294;2023-01-01T02:44:21;99987.69;;;2.67;71.88
76311;BME280;65120;59.304;18.294;2023-01-01T02:46:49;99981.69;;;2.67;72.24
76311;BME280;65120;59.304;18.294;2023-01-01T02:49:16;99986.00;;;2.66;71.74
76311;BME280;65120;59.304;18.294;2023-01-01T02:51:56;99996.31;;;2.68;71.72
76311;BME280;65120;59.304;18.294;2023-01-01T02:54:31;99997.19;;;2.65;71.98
76311;BME280;65120;59.304;18.294;2023-01-01T02:57:05;99992.88;;;2.66;72.17
76311;BME280;65120;59.304;18.294;2023-01-01T02:59:42;99989.44;;;2.65;71.81
76311;BME280;65120;59.304;18.294;2023-01-01T03:02:36;99986.00;;;2.65;71.62
76311;BME280;65120;59.304;18.294;2023-01-01T03:05:10;99986.84;;;2.64;72.37
76311;BME280;65120;59.304;18.294;2023-01-01T03:07:49;99989.44;;;2.64;71.99
76311;BME280;65120;59.304;18.294;2023-01-01T03:10:23;99989.44;;;2.62;72.33
76311;BME280;65120;59.304;18.294;2023-01-01T03:12:58;99998.88;;;2.59;72.11
76311;BME280;65120;59.304;18.294;2023-01-01T03:15:35;99996.31;;;2.62;71.96
76311;BME280;65120;59.304;18.294;2023-01-01T03:18:08;100002.34;;;2.59;71.94
76311;BME280;65120;59.304;18.294;2023-01-01T03:20:40;100000.59;;;2.60;71.81
76311;BME280;65120;59.304;18.294;2023-01-01T03:23:13;100005.75;;;2.60;72.52
76311;BME280;65120;59.304;18.294;2023-01-01T03:25:45;100010.94;;;2.60;72.34
76311;BME280;65120;59.304;18.294;2023-01-01T03:28:17;100002.34;;;2.56;72.46
76311;BME280;65120;59.304;18.294;2023-01-01T03:30:47;100010.94;;;2.60;72.19
76311;BME280;65120;59.304;18.294;2023-01-01T03:33:19;100005.75;;;2.60;72.48
76311;BME280;65120;59.304;18.294;2023-01-01T03:35:53;100008.34;;;2.60;71.73
76311;BME280;65120;59.304;18.294;2023-01-01T03:38:25;99998.88;;;2.54;72.48
76311;BME280;65120;59.304;18.294;2023-01-01T03:41:00;100009.19;;;2.59;72.11
76311;BME280;65120;59.304;18.294;2023-01-01T03:43:34;100018.63;;;2.58;72.29
76311;BME280;65120;59.304;18.294;2023-01-01T03:46:07;100020.38;;;2.58;72.29
76311;BME280;65120;59.304;18.294;2023-01-01T03:48:36;100016.06;;;2.57;71.70
76311;BME280;65120;59.304;18.294;2023-01-01T03:51:21;100020.34;;;2.53;72.47
76311;BME280;65120;59.304;18.294;2023-01-01T03:53:51;100025.53;;;2.56;71.72
76311;BME280;65120;59.304;18.294;2023-01-01T03:56:22;100030.66;;;2.55;71.74
76311;BME280;65120;59.304;18.294;2023-01-01T03:59:00;100034.97;;;2.54;71.89
76311;BME280;65120;59.304;18.294;2023-01-01T04:01:36;100041.84;;;2.54;71.92
76311;BME280;65120;59.304;18.294;2023-01-01T04:04:06;100043.53;;;2.50;71.87
76311;BME280;65120;59.304;18.294;2023-01-01T04:06:33;100047.00;;;2.51;72.12
76311;BME280;65120;59.304;18.294;2023-01-01T04:09:02;100037.53;;;2.50;71.98
76311;BME280;65120;59.304;18.294;2023-01-01T04:11:31;100040.97;;;2.47;72.19
76311;BME280;65120;59.304;18.294;2023-01-01T04:14:25;100041.78;;;2.41;72.36
76311;BME280;65120;59.304;18.294;2023-01-01T04:16:54;100053.84;;;2.45;71.83
76311;BME280;65120;59.304;18.294;2023-01-01T04:19:21;100052.13;;;2.44;72.03
76311;BME280;65120;59.304;18.294;2023-01-01T04:21:48;100059.00;;;2.42;71.94
76311;BME280;65120;59.304;18.294;2023-01-01T04:24:15;100054.72;;;2.43;72.29
76311;BME280;65120;59.304;18.294;2023-01-01T04:26:42;100055.53;;;2.42;72.36
76311;BME280;65120;59.304;18.294;2023-01-01T04:29:09;100052.97;;;2.40;72.46
76311;BME280;65120;59.304;18.294;2023-01-01T04:31:36;100052.13;;;2.40;72.14
76311;BME280;65120;59.304;18.294;2023-01-01T04:34:04;100058.13;;;2.39;71.92
76311;BME280;65120;59.304;18.294;2023-01-01T04:36:32;100064.13;;;2.38;71.76
76311;BME280;65120;59.304;18.294;2023-01-01T04:38:59;100064.97;;;2.35;71.89
76311;BME280;65120;59.304;18.294;2023-01-01T04:41:26;100070.13;;;2.35;71.73
76311;BME280;65120;59.304;18.294;2023-01-01T04:43:53;100070.16;;;2.34;71.58
76311;BME280;65120;59.304;18.294;2023-01-01T04:46:20;100074.41;;;2.33;71.88
76311;BME280;65120;59.304;18.294;2023-01-01T04:48:48;100075.28;;;2.32;71.95
76311;BME280;65120;59.304;18.294;2023-01-01T04:51:19;100071.00;;;2.31;72.43
76311;BME280;65120;59.304;18.294;2023-01-01T04:53:46;100066.66;;;2.30;71.78
76311;BME280;65120;59.304;18.294;2023-01-01T04:56:15;100079.56;;;2.30;72.38
76311;BME280;65120;59.304;18.294;2023-01-01T04:58:43;100077.88;;;2.31;72.08
76311;BME280;65120;59.304;18.294;2023-01-01T05:01:15;100080.44;;;2.29;72.46
76311;BME280;65120;59.304;18.294;2023-01-01T05:03:42;100080.41;;;2.28;71.84
76311;BME280;65120;59.304;18.294;2023-01-01T05:06:11;100090.72;;;2.28;72.04
76311;BME280;65120;59.304;18.294;2023-01-01T05:08:41;100088.16;;;2.26;72.45
76311;BME280;65120;59.304;18.294;2023-01-01T05:11:10;100092.44;;;2.25;71.82
76311;BME280;65120;59.304;18.294;2023-01-01T05:13:38;100086.44;;;2.25;72.69
76311;BME280;65120;59.304;18.294;2023-01-01T05:16:07;100089.84;;;2.24;72.10
76311;BME280;65120;59.304;18.294;2023-01-01T05:18:35;100095.00;;;2.24;72.19
76311;BME280;65120;59.304;18.294;2023-01-01T05:21:03;100088.13;;;2.23;72.48
76311;BME280;65120;59.304;18.294;2023-01-01T05:23:31;100088.97;;;2.22;72.30
76311;BME280;65120;59.304;18.294;2023-01-01T05:26:00;100086.41;;;2.20;72.26
76311;BME280;65120;59.304;18.294;2023-01-01T05:28:34;100095.84;;;2.21;71.86
76311;BME280;65120;59.304;18.294;2023-01-01T05:31:04;100093.28;;;2.17;72.51
76311;BME280;65120;59.304;18.294;2023-01-01T05:33:31;100104.44;;;2.20;71.88
76311;BME280;65120;59.304;18.294;2023-01-01T05:35:59;100096.69;;;2.19;72.46
76311;BME280;65120;59.304;18.294;2023-01-01T05:38:26;100112.16;;;2.19;71.99
76311;BME280;65120;59.304;18.294;2023-01-01T05:40:53;100119.88;;;2.17;71.99
76311;BME280;65120;59.304;18.294;2023-01-01T05:43:21;100119.03;;;2.17;72.51
76311;BME280;65120;59.304;18.294;2023-01-01T05:45:48;100087.16;;;2.01;72.18
76311;BME280;65120;59.304;18.294;2023-01-01T05:48:15;100129.31;;;2.14;72.14
76311;BME280;65120;59.304;18.294;2023-01-01T05:50:42;100135.34;;;2.14;72.08
76311;BME280;65120;59.304;18.294;2023-01-01T05:53:09;100121.59;;;2.14;71.98
76311;BME280;65120;59.304;18.294;2023-01-01T05:55:35;100124.16;;;2.12;72.25
76311;BME280;65120;59.304;18.294;2023-01-01T05:58:02;100123.28;;;2.12;71.91
76311;BME280;65120;59.304;18.294;2023-01-01T06:00:31;100129.31;;;2.11;71.94
76311;BME280;65120;59.304;18.294;2023-01-01T06:02:57;100115.53;;;2.06;72.63
76311;BME280;65120;59.304;18.294;2023-01-01T06:05:24;100125.84;;;2.07;71.91
76311;BME280;65120;59.304;18.294;2023-01-01T06:07:51;100131.00;;;2.09;72.30
76311;BME280;65120;59.304;18.294;2023-01-01T06:10:18;100125.00;;;2.08;72.33
76311;BME280;65120;59.304;18.294;2023-01-01T06:12:45;100125.84;;;2.06;72.40
76311;BME280;65120;59.304;18.294;2023-01-01T06:15:12;100129.28;;;2.06;71.98
76311;BME280;65120;59.304;18.294;2023-01-01T06:17:40;100131.00;;;2.06;72.21
76311;BME280;65120;59.304;18.294;2023-01-01T06:20:08;100137.88;;;2.05;72.53
76311;BME280;65120;59.304;18.294;2023-01-01T06:22:35;100132.72;;;2.05;72.07
76311;BME280;65120;59.304;18.294;2023-01-01T06:25:04;100129.25;;;2.03;72.34
76311;BME280;65120;59.304;18.294;2023-01-01T06:27:31;100130.97;;;2.02;72.00
76311;BME280;65120;59.304;18.294;2023-01-01T06:29:58;100144.72;;;2.03;72.19
76311;BME280;65120;59.304;18.294;2023-01-01T06:32:25;100149.84;;;2.01;72.14
76311;BME280;65120;59.304;18.294;2023-01-01T06:34:53;100154.13;;;2.01;72.45
76311;BME280;65120;59.304;18.294;2023-01-01T06:37:20;100149.00;;;1.99;72.49
76311;BME280;65120;59.304;18.294;2023-01-01T06:39:47;100145.53;;;1.99;72.55
76311;BME280;65120;59.304;18.294;2023-01-01T06:42:14;100144.69;;;1.97;71.97
76311;BME280;65120;59.304;18.294;2023-01-01T06:44:41;100167.00;;;1.96;71.90
76311;BME280;65120;59.304;18.294;2023-01-01T06:47:08;100150.66;;;1.96;72.34
76311;BME280;65120;59.304;18.294;2023-01-01T06:49:35;100153.25;;;1.94;72.77
76311;BME280;65120;59.304;18.294;2023-01-01T06:52:03;100163.56;;;1.94;72.16
76311;BME280;65120;59.304;18.294;2023-01-01T06:54:30;100171.25;;;1.93;72.52
76311;BME280;65120;59.304;18.294;2023-01-01T06:56:57;100169.53;;;1.92;72.34
76311;BME280;65120;59.304;18.294;2023-01-01T06:59:24;100179.00;;;1.91;71.98
76311;BME280;65120;59.304;18.294;2023-01-01T07:01:51;100185.84;;;1.91;72.65
76311;BME280;65120;59.304;18.294;2023-01-01T07:04:18;100188.41;;;1.89;72.47
76311;BME280;65120;59.304;18.294;2023-01-01T07:06:45;100190.94;;;1.88;72.10
76311;BME280;65120;59.304;18.294;2023-01-01T07:09:13;100195.28;;;1.89;72.88
76311;BME280;65120;59.304;18.294;2023-01-01T07:11:40;100202.16;;;1.88;72.60
76311;BME280;65120;59.304;18.294;2023-01-01T07:14:07;100207.28;;;1.85;72.61
76311;BME280;65120;59.304;18.294;2023-01-01T07:16:34;100203.84;;;1.89;72.54
76311;BME280;65120;59.304;18.294;2023-01-01T07:19:01;100198.69;;;1.88;72.81
76311;BME280;65120;59.304;18.294;2023-01-01T07:21:29;100206.41;;;1.86;72.29
76311;BME280;65120;59.304;18.294;2023-01-01T07:23:58;100205.56;;;1.87;72.42
76311;BME280;65120;59.304;18.294;2023-01-01T07:26:27;100206.41;;;1.86;72.66
76311;BME280;65120;59.304;18.294;2023-01-01T07:28:54;100216.72;;;1.86;72.83
76311;BME280;65120;59.304;18.294;2023-01-01T07:31:21;100217.56;;;1.87;72.17
76311;BME280;65120;59.304;18.294;2023-01-01T07:33:48;100220.16;;;1.85;72.71
76311;BME280;65120;59.304;18.294;2023-01-01T07:36:15;100208.09;;;1.84;72.21
76311;BME280;65120;59.304;18.294;2023-01-01T07:38:42;100222.72;;;1.85;72.44
76311;BME280;65120;59.304;18.294;2023-01-01T07:41:09;100223.56;;;1.84;72.21
76311;BME280;65120;59.304;18.294;2023-01-01T07:43:37;100228.72;;;1.83;72.24
76311;BME280;65120;59.304;18.294;2023-01-01T07:46:04;100223.53;;;1.81;72.20
76311;BME280;65120;59.304;18.294;2023-01-01T07:48:31;100218.38;;;1.81;72.62
76311;BME280;65120;59.304;18.294;2023-01-01T07:50:58;100218.38;;;1.79;73.08
76311;BME280;65120;59.304;18.294;2023-01-01T07:53:25;100222.69;;;1.80;72.62
76311;BME280;65120;59.304;18.294;2023-01-01T07:55:52;100229.53;;;1.80;72.60
76311;BME280;65120;59.304;18.294;2023-01-01T07:58:19;100227.81;;;1.77;72.45
76311;BME280;65120;59.304;18.294;2023-01-01T08:00:48;100234.66;;;1.77;72.64
76311;BME280;65120;59.304;18.294;2023-01-01T08:03:15;100235.50;;;1.76;72.18
76311;BME280;65120;59.304;18.294;2023-01-01T08:05:42;100248.34;;;1.73;72.21
76311;BME280;65120;59.304;18.294;2023-01-01T08:08:09;100256.06;;;1.70;72.32
76311;BME280;65120;59.304;18.294;2023-01-01T08:10:37;100262.94;;;1.71;72.63
76311;BME280;65120;59.304;18.294;2023-01-01T08:13:05;100262.06;;;1.69;72.02
76311;BME280;65120;59.304;18.294;2023-01-01T08:15:33;100271.47;;;1.67;72.01
76311;BME280;65120;59.304;18.294;2023-01-01T08:18:03;100280.91;;;1.66;71.89
76311;BME280;65120;59.304;18.294;2023-01-01T08:20:31;100279.16;;;1.64;71.86
76311;BME280;65120;59.304;18.294;2023-01-01T08:22:58;100280.84;;;1.62;72.10
76311;BME280;65120;59.304;18.294;2023-01-01T08:25:25;100263.59;;;1.53;72.29
76311;BME280;65120;59.304;18.294;2023-01-01T08:27:52;100276.50;;;1.56;72.04
76311;BME280;65120;59.304;18.294;2023-01-01T08:30:19;100283.38;;;1.55;72.32
76311;BME280;65120;59.304;18.294;2023-01-01T08:32:46;100288.50;;;1.52;72.47
76311;BME280;65120;59.304;18.294;2023-01-01T08:35:14;100296.19;;;1.49;72.35
76311;BME280;65120;59.304;18.294;2023-01-01T08:37:41;100305.63;;;1.50;72.34
76311;BME280;65120;59.304;18.294;2023-01-01T08:40:10;100308.16;;;1.47;71.85
76311;BME280;65120;59.304;18.294;2023-01-01T08:42:38;100315.03;;;1.47;72.12
76311;BME280;65120;59.304;18.294;2023-01-01T08:45:06;100306.41;;;1.43;71.80
76311;BME280;65120;59.304;18.294;2023-01-01T08:47:33;100321.81;;;1.42;71.82
76311;BME280;65120;59.304;18.294;2023-01-01T08:50:00;100322.66;;;1.39;72.11
76311;BME280;65120;59.304;18.294;2023-01-01T08:52:28;100332.94;;;1.38;71.42
76311;BME280;65120;59.304;18.294;2023-01-01T08:54:55;100314.72;;;1.21;71.67
76311;BME280;65120;59.304;18.294;2023-01-01T08:57:22;100345.75;;;1.31;72.72
76311;BME280;65120;59.304;18.294;2023-01-01T08:59:49;100355.19;;;1.31;72.25
76311;BME280;65120;59.304;18.294;2023-01-01T09:02:16;100352.53;;;1.28;72.52
76311;BME280;65120;59.304;18.294;2023-01-01T09:04:43;100359.41;;;1.26;71.91
76311;BME280;65120;59.304;18.294;2023-01-01T09:07:09;100373.09;;;1.25;72.13
76311;BME280;65120;59.304;18.294;2023-01-01T09:09:38;100379.09;;;1.24;72.19
76311;BME280;65120;59.304;18.294;2023-01-01T09:12:05;100367.03;;;1.21;71.90
76311;BME280;65120;59.304;18.294;2023-01-01T09:14:34;100358.44;;;1.18;72.24
76311;BME280;65120;59.304;18.294;2023-01-01T09:17:01;100376.44;;;1.18;72.29
76311;BME280;65120;59.304;18.294;2023-01-01T09:19:28;100378.13;;;1.16;71.64
76311;BME280;65120;59.304;18.294;2023-01-01T09:21:55;100383.25;;;1.14;72.23
76311;BME280;65120;59.304;18.294;2023-01-01T09:24:22;100386.66;;;1.13;72.28
76311;BME280;65120;59.304;18.294;2023-01-01T09:26:50;100375.44;;;1.06;72.26
76311;BME280;65120;59.304;18.294;2023-01-01T09:29:17;100393.44;;;1.08;72.30
76311;BME280;65120;59.304;18.294;2023-01-01T09:31:45;100400.28;;;1.06;72.16
76311;BME280;65120;59.304;18.294;2023-01-01T09:34:12;100396.81;;;1.04;72.23
76311;BME280;65120;59.304;18.294;2023-01-01T09:36:39;100408.78;;;1.02;72.72
76311;BME280;65120;59.304;18.294;2023-01-01T09:39:09;100415.66;;;1.01;72.47
76311;BME280;65120;59.304;18.294;2023-01-01T09:41:48;100411.31;;;0.99;72.30
76311;BME280;65120;59.304;18.294;2023-01-01T09:44:29;100413.03;;;0.98;71.82
76311;BME280;65120;59.304;18.294;2023-01-01T09:47:12;100416.47;;;0.97;72.74
76311;BME280;65120;59.304;18.294;2023-01-01T09:49:45;100422.47;;;0.98;71.96
76311;BME280;65120;59.304;18.294;2023-01-01T09:52:13;100410.34;;;0.89;72.23
76311;BME280;65120;59.304;18.294;2023-01-01T09:54:46;100423.31;;;0.98;72.03
76311;BME280;65120;59.304;18.294;2023-01-01T09:57:16;100432.75;;;0.98;72.64
76311;BME280;65120;59.304;18.294;2023-01-01T09:59:44;100431.06;;;1.00;72.32
76311;BME280;65120;59.304;18.294;2023-01-01T10:02:34;100431.09;;;1.01;72.53
76311;BME280;65120;59.304;18.294;2023-01-01T10:05:16;100428.50;;;1.01;72.57
76311;BME280;65120;59.304;18.294;2023-01-01T10:07:50;100435.38;;;1.02;72.79
76311;BME280;65120;59.304;18.294;2023-01-01T10:10:30;100433.66;;;1.01;72.98
76311;BME280;65120;59.304;18.294;2023-01-01T10:13:09;100428.50;;;1.01;73.20
76311;BME280;65120;59.304;18.294;2023-01-01T10:15:46;100424.22;;;1.00;72.77
76311;BME280;65120;59.304;18.294;2023-01-01T10:18:19;100430.22;;;1.02;72.47
76311;BME280;65120;59.304;18.294;2023-01-01T10:20:53;100431.09;;;1.01;72.57
76311;BME280;65120;59.304;18.294;2023-01-01T10:23:26;100434.47;;;0.99;72.69
76311;BME280;65120;59.304;18.294;2023-01-01T10:25:56;100453.38;;;1.01;72.54
76311;BME280;65120;59.304;18.294;2023-01-01T10:28:30;100456.78;;;1.01;72.79
76311;BME280;65120;59.304;18.294;2023-01-01T10:31:13;100454.22;;;1.01;73.10
76311;BME280;65120;59.304;18.294;2023-01-01T10:33:40;100443.94;;;1.01;72.78
76311;BME280;65120;59.304;18.294;2023-01-01T10:36:09;100440.50;;;1.02;73.13
76311;BME280;65120;59.304;18.294;2023-01-01T10:38:39;100443.94;;;1.01;72.37
76311;BME280;65120;59.304;18.294;2023-01-01T10:41:07;100452.56;;;1.03;73.22
76311;BME280;65120;59.304;18.294;2023-01-01T10:43:35;100447.41;;;1.03;72.43
76311;BME280;65120;59.304;18.294;2023-01-01T10:46:05;100450.84;;;1.04;72.90
76311;BME280;65120;59.304;18.294;2023-01-01T10:48:32;100449.13;;;1.04;72.83
76311;BME280;65120;59.304;18.294;2023-01-01T10:51:02;100449.97;;;1.05;72.67
76311;BME280;65120;59.304;18.294;2023-01-01T10:53:31;100450.03;;;1.06;72.72
76311;BME280;65120;59.304;18.294;2023-01-01T10:56:06;100461.16;;;1.05;72.97
76311;BME280;65120;59.304;18.294;2023-01-01T10:58:39;100454.31;;;1.06;72.41
76311;BME280;65120;59.304;18.294;2023-01-01T11:01:10;100467.16;;;1.06;72.72
76311;BME280;65120;59.304;18.294;2023-01-01T11:03:52;100469.75;;;1.07;73.50
76311;BME280;65120;59.304;18.294;2023-01-01T11:06:20;100476.59;;;1.05;72.78
76311;BME280;65120;59.304;18.294;2023-01-01T11:08:49;100485.13;;;1.04;72.68
76311;BME280;65120;59.304;18.294;2023-01-01T11:11:19;100478.28;;;1.03;73.32
76311;BME280;65120;59.304;18.294;2023-01-01T11:13:49;100476.53;;;1.02;72.93
76311;BME280;65120;59.304;18.294;2023-01-01T11:16:18;100488.56;;;1.03;73.04
76311;BME280;65120;59.304;18.294;2023-01-01T11:18:46;100493.72;;;1.05;72.86
76311;BME280;65120;59.304;18.294;2023-01-01T11:21:19;100491.94;;;1.02;72.82
76311;BME280;65120;59.304;18.294;2023-01-01T11:23:48;100490.22;;;1.01;73.30
76311;BME280;65120;59.304;18.294;2023-01-01T11:26:20;100492.84;;;1.03;73.24
76311;BME280;65120;59.304;18.294;2023-01-01T11:29:00;100485.94;;;1.00;72.90
76311;BME280;65120;59.304;18.294;2023-01-01T11:31:33;100484.22;;;1.01;73.25
76311;BME280;65120;59.304;18.294;2023-01-01T11:34:02;100494.47;;;0.99;72.81
76311;BME280;65120;59.304;18.294;2023-01-01T11:36:31;100488.44;;;0.94;72.96
76311;BME280;65120;59.304;18.294;2023-01-01T11:39:19;100500.53;;;1.01;73.30
76311;BME280;65120;59.304;18.294;2023-01-01T11:41:49;100494.53;;;1.01;72.72
76311;BME280;65120;59.304;18.294;2023-01-01T11:44:25;100495.38;;;1.01;73.00
76311;BME280;65120;59.304;18.294;2023-01-01T11:46:56;100501.38;;;1.02;73.17
76311;BME280;65120;59.304;18.294;2023-01-01T11:49:27;100499.66;;;1.01;72.85
76311;BME280;65120;59.304;18.294;2023-01-01T11:51:56;100509.94;;;1.01;73.41
76311;BME280;65120;59.304;18.294;2023-01-01T11:54:29;100522.00;;;1.03;73.23
76311;BME280;65120;59.304;18.294;2023-01-01T11:57:03;100529.72;;;1.03;72.95
76311;BME280;65120;59.304;18.294;2023-01-01T11:59:40;100533.16;;;1.04;73.25
76311;BME280;65120;59.304;18.294;2023-01-01T12:02:14;100540.00;;;1.05;72.75
76311;BME280;65120;59.304;18.294;2023-01-01T12:04:46;100534.88;;;1.05;73.29
76311;BME280;65120;59.304;18.294;2023-01-01T12:07:16;100543.47;;;1.05;73.01
76311;BME280;65120;59.304;18.294;2023-01-01T12:09:48;100543.47;;;1.05;72.81
76311;BME280;65120;59.304;18.294;2023-01-01T12:12:25;100548.63;;;1.07;72.82
76311;BME280;65120;59.304;18.294;2023-01-01T12:14:58;100554.63;;;1.07;73.06
76311;BME280;65120;59.304;18.294;2023-01-01T12:17:32;100550.34;;;1.08;72.61
76311;BME280;65120;59.304;18.294;2023-01-01T12:20:02;100550.34;;;1.06;72.48
76311;BME280;65120;59.304;18.294;2023-01-01T12:22:30;100558.09;;;1.09;73.14
76311;BME280;65120;59.304;18.294;2023-01-01T12:24:58;100563.22;;;1.08;73.14
76311;BME280;65120;59.304;18.294;2023-01-01T12:27:42;100570.97;;;1.09;73.00
76311;BME280;65120;59.304;18.294;2023-01-01T12:30:19;100576.97;;;1.10;73.22
76311;BME280;65120;59.304;18.294;2023-01-01T12:35:57;100572.69;;;1.09;73.13
76311;BME280;65120;59.304;18.294;2023-01-01T12:38:42;100586.44;;;1.12;72.57
76311;BME280;65120;59.304;18.294;2023-01-01T12:41:21;100585.59;;;1.12;72.72
76311;BME280;65120;59.304;18.294;2023-01-01T12:44:02;100580.47;;;1.13;72.73
76311;BME280;65120;59.304;18.294;2023-01-01T12:46:42;100591.66;;;1.16;72.67
76311;BME280;65120;59.304;18.294;2023-01-01T12:49:33;100590.78;;;1.15;72.24
76311;BME280;65120;59.304;18.294;2023-01-01T12:52:17;100600.22;;;1.15;72.06
76311;BME280;65120;59.304;18.294;2023-01-01T12:55:09;100609.69;;;1.17;72.50
76311;BME280;65120;59.304;18.294;2023-01-01T12:57:48;100607.94;;;1.15;72.95
76311;BME280;65120;59.304;18.294;2023-01-01T13:00:18;100613.13;;;1.19;72.75
76311;BME280;65120;59.304;18.294;2023-01-01T13:02:48;100616.59;;;1.20;71.85
76311;BME280;65120;59.304;18.294;2023-01-01T13:05:21;100612.31;;;1.22;72.52
76311;BME280;65120;59.304;18.294;2023-01-01T13:07:51;100614.03;;;1.20;72.19
76311;BME280;65120;59.304;18.294;2023-01-01T13:10:24;100614.09;;;1.23;72.12
76311;BME280;65120;59.304;18.294;2023-01-01T13:12:54;100612.31;;;1.22;72.35
76311;BME280;65120;59.304;18.294;2023-01-01T13:15:48;100604.66;;;1.23;72.29